createdAt,value
2022-12-12T00:01:55.879Z,-2.00
2022-12-12T00:06:58.385Z,-2.00
2022-12-12T00:12:02.259Z,-2.00
2022-12-12T00:17:05.146Z,-1.90
2022-12-12T00:22:09.884Z,-1.90
2022-12-12T00:27:12.381Z,-1.90
2022-12-12T00:32:14.898Z,-1.80
2022-12-12T00:37:18.086Z,-1.80
2022-12-12T00:42:20.950Z,-1.80
2022-12-12T00:47:23.527Z,-1.90
2022-12-12T00:52:26.074Z,-1.80
2022-12-12T00:57:28.840Z,-1.80
2022-12-12T01:02:31.581Z,-1.80
2022-12-12T01:07:34.856Z,-1.80
2022-12-12T01:12:37.368Z,-1.70
2022-12-12T01:17:39.916Z,-1.70
2022-12-12T01:22:42.410Z,-1.70
2022-12-12T01:27:45.982Z,-1.60
2022-12-12T01:37:51.955Z,-1.60
2022-12-12T01:42:55.064Z,-1.60
2022-12-12T01:48:03.453Z,-1.60
2022-12-12T01:53:07.928Z,-1.50
2022-12-12T01:58:10.665Z,-1.50
2022-12-12T02:03:13.292Z,-1.50
2022-12-12T02:08:17.864Z,-1.50
2022-12-12T02:13:24.739Z,-1.50
2022-12-12T02:18:49.001Z,-1.40
2022-12-12T02:24:27.424Z,-1.40
2022-12-12T02:29:41.785Z,-1.50
2022-12-12T02:35:05.439Z,-1.30
2022-12-12T02:40:30.909Z,-1.30
2022-12-12T02:45:45.752Z,-1.30
2022-12-12T02:50:53.767Z,-1.20
2022-12-12T02:56:25.700Z,-1.20
2022-12-12T03:02:09.254Z,-1.20
2022-12-12T03:07:48.012Z,-1.10
2022-12-12T03:13:00.394Z,-1.10
2022-12-12T03:18:31.394Z,-1.10
2022-12-12T03:23:41.719Z,-1.20
2022-12-12T03:28:49.587Z,-1.20
2022-12-12T03:34:05.901Z,-1.10
2022-12-12T03:39:33.962Z,-1.20
2022-12-12T03:45:12.665Z,-1.20
2022-12-12T03:50:24.913Z,-1.10
2022-12-12T03:55:38.905Z,-1.20
2022-12-12T04:00:45.660Z,-1.00
2022-12-12T04:06:20.452Z,-1.00
2022-12-12T04:11:41.442Z,-1.10
2022-12-12T04:16:46.961Z,-1.10
2022-12-12T04:22:16.815Z,-1.10
2022-12-12T04:27:30.484Z,-1.10
2022-12-12T04:32:32.980Z,-1.10
2022-12-12T04:37:42.064Z,-1.10
2022-12-12T04:42:50.819Z,-1.00
2022-12-12T04:47:56.338Z,-1.00
2022-12-12T04:53:01.995Z,-1.10
2022-12-12T04:58:06.654Z,-1.10
2022-12-12T05:03:21.947Z,-1.10
2022-12-12T05:08:29.736Z,-1.10
2022-12-12T05:13:43.098Z,-1.10
2022-12-12T05:18:46.052Z,-1.10
2022-12-12T05:23:48.539Z,-1.10
2022-12-12T05:28:51.553Z,-1.10
2022-12-12T05:33:54.625Z,-1.20
2022-12-12T05:38:57.302Z,-1.20
2022-12-12T05:43:59.823Z,-1.20
2022-12-12T05:49:02.380Z,-1.20
2022-12-12T05:54:05.498Z,-1.20
2022-12-12T05:59:07.980Z,-1.20
2022-12-12T06:04:10.706Z,-1.20
2022-12-12T06:09:13.419Z,-1.20
2022-12-12T06:14:16.638Z,-1.30
2022-12-12T06:19:20.078Z,-1.30
2022-12-12T06:24:22.845Z,-1.20
2022-12-12T06:29:25.320Z,-1.30
2022-12-12T06:34:28.075Z,-1.20
2022-12-12T06:39:30.742Z,-1.10
2022-12-12T06:44:33.259Z,-1.10
2022-12-12T06:49:36.252Z,-1.20
2022-12-12T06:54:38.763Z,-1.10
2022-12-12T06:59:41.349Z,-1.10
2022-12-12T07:04:43.877Z,-1.00
2022-12-12T07:09:47.038Z,-0.90
2022-12-12T07:14:49.461Z,-1.00
2022-12-12T07:19:51.990Z,-0.90
2022-12-12T07:24:54.556Z,-0.90
2022-12-12T07:29:57.212Z,-0.80
2022-12-12T07:35:00.700Z,-0.80
2022-12-12T07:40:03.646Z,-0.70
2022-12-12T07:45:06.813Z,-0.70
2022-12-12T07:50:10.821Z,-0.60
2022-12-12T07:55:13.661Z,-0.50
2022-12-12T08:00:17.050Z,-0.30
2022-12-12T08:05:19.723Z,-0.40
2022-12-12T08:10:22.443Z,-0.20
2022-12-12T08:15:24.960Z,-0.10
2022-12-12T08:20:27.685Z,0.00
2022-12-12T08:25:30.441Z,0.00
2022-12-12T08:30:33.016Z,0.00
2022-12-12T08:35:35.588Z,0.10
2022-12-12T08:40:38.166Z,0.10
2022-12-12T08:45:40.848Z,0.10
2022-12-12T08:50:43.361Z,0.10
2022-12-12T08:55:45.945Z,0.20
2022-12-12T09:00:48.644Z,0.30
2022-12-12T09:05:51.133Z,0.40
2022-12-12T09:10:53.834Z,0.40
2022-12-12T09:15:56.636Z,0.50
2022-12-12T09:20:59.632Z,0.50
2022-12-12T09:26:09.656Z,0.60
2022-12-12T09:31:13.440Z,0.60
2022-12-12T09:36:16.127Z,0.70
2022-12-12T09:41:21.247Z,0.60
2022-12-12T09:46:47.243Z,0.70
2022-12-12T09:51:51.156Z,0.80
2022-12-12T09:57:02.176Z,0.70
2022-12-12T10:02:23.326Z,1.00
2022-12-12T10:07:37.752Z,1.00
2022-12-12T10:12:40.973Z,1.20
2022-12-12T10:17:46.089Z,1.10
2022-12-12T10:23:01.118Z,1.20
2022-12-12T10:28:16.203Z,1.40
2022-12-12T10:33:56.868Z,1.50
2022-12-12T10:39:02.078Z,1.50
2022-12-12T10:44:19.645Z,1.70
2022-12-12T10:49:24.509Z,1.50
2022-12-12T10:54:28.907Z,1.50
2022-12-12T10:59:31.525Z,1.50
2022-12-12T11:04:34.368Z,1.50
2022-12-12T11:09:45.721Z,1.60
2022-12-12T11:14:51.185Z,1.70
2022-12-12T11:19:57.115Z,2.10
2022-12-12T11:25:00.567Z,2.10
2022-12-12T11:30:23.012Z,1.80
2022-12-12T11:35:28.468Z,2.10
2022-12-12T11:40:34.960Z,1.80
2022-12-12T11:45:37.728Z,1.90
2022-12-12T11:50:46.353Z,2.00
2022-12-12T11:56:12.991Z,2.00
2022-12-12T12:02:11.055Z,2.00
2022-12-12T12:07:50.929Z,2.20
2022-12-12T12:13:26.129Z,1.90
2022-12-12T12:19:00.705Z,1.80
2022-12-12T12:24:03.275Z,1.70
2022-12-12T12:29:20.556Z,1.70
2022-12-12T12:34:41.044Z,1.50
2022-12-12T12:39:53.121Z,1.60
2022-12-12T12:45:07.195Z,1.70
2022-12-12T12:50:24.357Z,1.50
2022-12-12T12:55:32.279Z,1.30
2022-12-12T13:00:35.833Z,1.40
2022-12-12T13:05:52.827Z,1.20
2022-12-12T13:11:14.937Z,1.30
2022-12-12T13:16:27.821Z,1.10
2022-12-12T13:21:40.614Z,1.20
2022-12-12T13:27:01.870Z,1.10
2022-12-12T13:32:35.177Z,0.90
2022-12-12T13:37:49.335Z,0.80
2022-12-12T13:42:56.535Z,0.80
2022-12-12T13:48:09.520Z,0.80
2022-12-12T13:53:18.980Z,0.70
2022-12-12T13:58:34.283Z,0.70
2022-12-12T14:03:37.538Z,0.70
2022-12-12T14:08:49.276Z,0.70
2022-12-12T14:14:01.236Z,0.60
2022-12-12T14:19:18.087Z,0.60
2022-12-12T14:24:35.947Z,0.60
2022-12-12T14:29:43.835Z,0.50
2022-12-12T14:34:58.323Z,0.50
2022-12-12T14:40:27.642Z,0.50
2022-12-12T14:45:59.933Z,0.40
2022-12-12T14:51:06.392Z,0.40
2022-12-12T14:56:17.617Z,0.40
2022-12-12T15:01:34.585Z,0.40
2022-12-12T15:06:45.482Z,0.30
2022-12-12T15:11:48.753Z,0.30
2022-12-12T15:17:00.030Z,0.40
2022-12-12T15:22:03.234Z,0.30
2022-12-12T15:27:07.317Z,0.30
2022-12-12T15:32:17.965Z,0.30
2022-12-12T15:37:24.988Z,0.30
2022-12-12T15:42:28.157Z,0.20
2022-12-12T15:47:30.951Z,0.30
2022-12-12T15:52:35.794Z,0.30
2022-12-12T15:57:47.838Z,0.20
2022-12-12T16:03:00.744Z,0.20
2022-12-12T16:08:42.410Z,0.20
2022-12-12T16:13:46.772Z,0.20
2022-12-12T16:18:49.258Z,0.20
2022-12-12T16:23:51.828Z,0.10
2022-12-12T16:28:54.503Z,0.20
2022-12-12T16:33:57.187Z,0.20
2022-12-12T16:38:59.845Z,0.30
2022-12-12T16:44:02.348Z,0.20
2022-12-12T16:49:05.509Z,0.20
2022-12-12T16:54:18.115Z,0.20
2022-12-12T16:59:20.665Z,0.20
2022-12-12T17:04:23.981Z,0.20
2022-12-12T17:09:29.990Z,0.20
2022-12-12T17:14:32.931Z,0.10
2022-12-12T17:19:35.536Z,0.10
2022-12-12T17:24:38.158Z,0.20
2022-12-12T17:29:40.769Z,0.20
2022-12-12T17:34:43.255Z,0.20
2022-12-12T17:39:47.089Z,0.30
2022-12-12T17:44:50.069Z,0.30
2022-12-12T17:49:52.717Z,0.20
2022-12-12T17:55:53.396Z,0.20
2022-12-12T18:00:18.080Z,0.30
2022-12-12T18:05:20.617Z,0.20
2022-12-12T18:10:23.068Z,0.30
2022-12-12T18:15:25.752Z,0.30
2022-12-12T18:20:31.245Z,0.20
2022-12-12T18:25:37.536Z,0.20
2022-12-12T18:30:40.753Z,2.40
2022-12-12T18:35:43.676Z,0.20
2022-12-12T18:40:46.203Z,0.20
2022-12-12T18:45:48.833Z,0.20
2022-12-12T18:50:51.418Z,0.30
2022-12-12T18:55:54.387Z,0.20
2022-12-12T19:01:07.153Z,0.20
2022-12-12T19:06:13.440Z,0.10
2022-12-12T19:11:16.870Z,0.20
2022-12-12T19:16:20.305Z,0.20
2022-12-12T19:21:24.902Z,0.20
2022-12-12T19:26:28.367Z,0.10
2022-12-12T19:31:36.008Z,0.10
2022-12-12T19:36:39.231Z,0.10
2022-12-12T19:41:46.067Z,0.00
2022-12-12T19:46:48.694Z,0.10
2022-12-12T19:51:51.304Z,0.10
2022-12-12T19:56:53.827Z,0.00
2022-12-12T20:01:56.799Z,0.10
2022-12-12T20:06:59.438Z,0.10
2022-12-12T20:12:02.116Z,0.10
2022-12-12T20:17:04.907Z,0.10
2022-12-12T20:22:07.578Z,0.00
2022-12-12T20:27:11.320Z,0.10
2022-12-12T20:32:13.881Z,0.00
2022-12-12T20:37:20.036Z,0.00
2022-12-12T20:42:22.850Z,-0.10
2022-12-12T20:47:25.978Z,-0.10
2022-12-12T20:52:29.253Z,-0.10
2022-12-12T20:57:31.801Z,-0.20
2022-12-12T21:02:34.586Z,-0.20
2022-12-12T21:07:37.491Z,-0.20
2022-12-12T21:12:41.222Z,-0.20
2022-12-12T21:17:47.233Z,-0.20
2022-12-12T21:22:50.213Z,-0.20
2022-12-12T21:27:52.731Z,-0.20
2022-12-12T21:32:55.281Z,-0.20
2022-12-12T21:37:57.901Z,-0.20
2022-12-12T21:43:00.399Z,-0.40
2022-12-12T21:48:05.532Z,-0.40
2022-12-12T21:53:26.575Z,-0.40
2022-12-12T21:58:29.140Z,-0.40
2022-12-12T22:03:31.658Z,-0.50
2022-12-12T22:08:34.124Z,-0.50
2022-12-12T22:13:40.074Z,-0.50
2022-12-12T22:18:43.469Z,-0.50
2022-12-12T22:23:47.751Z,-0.50
2022-12-12T22:28:52.521Z,-0.50
2022-12-12T22:33:59.223Z,-0.60
2022-12-12T22:39:02.081Z,-0.50
2022-12-12T22:44:06.090Z,-0.60
2022-12-12T22:49:10.566Z,-0.60
2022-12-12T22:54:13.528Z,-0.50
2022-12-12T22:59:16.082Z,-0.60
2022-12-12T23:04:18.693Z,-0.50
2022-12-12T23:09:26.093Z,-0.50
2022-12-12T23:14:28.638Z,-0.50
2022-12-12T23:19:31.122Z,-0.50
2022-12-12T23:24:33.702Z,-0.50
2022-12-12T23:29:36.180Z,-0.50
2022-12-12T23:34:39.503Z,-0.50
2022-12-12T23:39:42.097Z,-0.50
2022-12-12T23:44:44.621Z,-0.40
2022-12-12T23:49:47.125Z,-0.40
2022-12-12T23:54:49.694Z,-0.40
2022-12-12T23:59:52.224Z,-0.40
